University, Washington
Current Conditions -  °F | °C
As of 10:53 PM on Friday 31 Oct 2014 (Local Time) from KBFI Reporting Station
Broken Clouds Broken Clouds  
Wind Chill: 52°   Ceiling: 3900
Heat Index: 52°   Visibility: 10mi
Dew Point: 47°   Wind: 0mph
Humidity: 83%   Direction: NA
Pressure: 29.87"   Gusts: NA
Location:  47.6619°N, 122.296°W
Report Text: KBFI 010553Z 00000KT 10SM SCT020 SCT028 BKN039 11/08 A2987 RMK AO2 SLP116 T01110083 10139 20111 50004
Loading
Personal Weather Stations






























Interactive Weather Map
Tropical Storm Tracking
New forecast layout! Learn more

10-Day Weather Forecast

Advertisements
Track Severe Weather on mobile